WetterOnline ( http://www.wetteronline.de )

Wetter aktuell Dietmannsried

Aktuelles Wetter: Kempten (705m)

6-stündlich | Neueste Meldungen
Ortszeit Temperatur Wetter
Fr, 20.07. 20:00 22.9° C leicht bewölkt
Fr, 20.07. 14:00 27.3° C wolkenlos
Fr, 20.07. 8:00 17.6° C wolkenlos
Fr, 20.07. 2:00 14.0° C leicht bewölkt
Do, 19.07. 20:00 25.1° C wolkenlos
Do, 19.07. 14:00 26.4° C wolkenlos
Do, 19.07. 8:00 16.4° C wolkenlos
Do, 19.07. 2:00 13.6° C wolkenlos
Ortszeit Temperatur Wetter
Fr, 20.07. 22:00 15.2° C Regen
Fr, 20.07. 21:50 15.2° C Regen
Fr, 20.07. 21:40 15.0° C starker Regen
Fr, 20.07. 21:30 17.5° C starker Regen
Fr, 20.07. 21:20 17.5° C starker Regen
Fr, 20.07. 21:10 20.1° C bewölkt
Fr, 20.07. 21:00 21.5° C wolkig
Fr, 20.07. 20:30 21.9° C bewölkt
Fr, 20.07. 20:00 22.9° C leicht bewölkt
Fr, 20.07. 19:30 24.9° C leicht bewölkt
Fr, 20.07. 19:00 25.3° C leicht bewölkt
Ortszeit Relative Feuchte Sichtweite
Fr, 20.07. 20:00 51% 30 km
Fr, 20.07. 14:00 40% 25 km
Fr, 20.07. 8:00 70% 18 km
Fr, 20.07. 2:00 85% 17 km
Do, 19.07. 20:00 40% 30 km
Do, 19.07. 14:00 37% 16 km
Do, 19.07. 8:00 69% 16 km
Do, 19.07. 2:00 89% 10 km
Ortszeit Relative Feuchte Sichtweite
Fr, 20.07. 22:00 93% 3.3 km
Fr, 20.07. 21:50 93% -
Fr, 20.07. 21:40 94% -
Fr, 20.07. 21:30 77% 1.2 km
Fr, 20.07. 21:20 77% -
Fr, 20.07. 21:10 60% -
Fr, 20.07. 21:00 54% 35 km
Fr, 20.07. 20:30 53% 30 km
Fr, 20.07. 20:00 51% 30 km
Fr, 20.07. 19:30 47% 30 km
Fr, 20.07. 19:00 46% 35 km
Ortszeit Niederschlagsmenge Niederschlagsart
Fr, 20.07. 20:00 0.0 l/m2 in 12 Std. -
Fr, 20.07. 14:00 0.0 l/m2 in 6 Std. -
Fr, 20.07. 8:00 0.0 l/m2 in 12 Std. -
Fr, 20.07. 2:00 0.0 l/m2 in 6 Std. -
Do, 19.07. 20:00 0.0 l/m2 in 12 Std. -
Do, 19.07. 14:00 0.0 l/m2 in 6 Std. -
Do, 19.07. 8:00 0.0 l/m2 in 12 Std. -
Do, 19.07. 2:00 0.0 l/m2 in 6 Std. -
Ortszeit Niederschlagsmenge Niederschlagsart
Fr, 20.07. 22:00 13.1 l/m2 in 1 Std. Regenschauer
Fr, 20.07. 21:50 keine Meldung -
Fr, 20.07. 21:40 keine Meldung -
Fr, 20.07. 21:30 0.1 l/m2 in 1 Std. -
Fr, 20.07. 21:20 keine Meldung -
Fr, 20.07. 21:10 keine Meldung -
Fr, 20.07. 21:00 0.0 l/m2 in 1 Std. -
Fr, 20.07. 20:30 0.0 l/m2 in 1 Std. -
Fr, 20.07. 20:00 0.0 l/m2 in 1 Std. -
Fr, 20.07. 19:30 0.0 l/m2 in 1 Std. -
Fr, 20.07. 19:00 0.0 l/m2 in 1 Std. -
Ortszeit Stärke Spitze Richtung
km/h Bft. km/h Grad Sektor
Fr, 20.07. 20:00 9 2 24 - -
Fr, 20.07. 14:00 7 2 18 - -
Fr, 20.07. 8:00 4 1 14 - -
Fr, 20.07. 2:00 7 2 14 - -
Do, 19.07. 20:00 7 2 22 - -
Do, 19.07. 14:00 7 2 22 - -
Do, 19.07. 8:00 4 1 11 - -
Do, 19.07. 2:00 6 1 13 - -
Ortszeit Stärke Spitze Richtung
km/h Bft. km/h Grad Sektor
Fr, 20.07. 22:00 11 2 36 - -
Fr, 20.07. 21:50 11 2 - - -
Fr, 20.07. 21:40 7 2 - - -
Fr, 20.07. 21:30 14 3 36 - -
Fr, 20.07. 21:20 14 3 - - -
Fr, 20.07. 21:10 18 3 - - -
Fr, 20.07. 21:00 9 2 19 - -
Fr, 20.07. 20:30 7 2 18 - -
Fr, 20.07. 20:00 9 2 15 - -
Fr, 20.07. 19:30 6 1 7 - -
Fr, 20.07. 19:00 4 1 11 - -
Ortszeit Untergrenze Bedeckung Gattung
total tief tief mittel hoch
Fr, 20.07. 20:00 5700 m 3/8 5/8 - - -
Fr, 20.07. 14:00 - 0/8 0/8 - - -
Fr, 20.07. 8:00 - 0/8 0/8 - - -
Fr, 20.07. 2:00 3300 m 3/8 3/8 - - -
Do, 19.07. 20:00 - 0/8 0/8 - - -
Do, 19.07. 14:00 - 0/8 0/8 - - -
Do, 19.07. 8:00 - 0/8 0/8 - - -
Do, 19.07. 2:00 - 0/8 0/8 - - -
Ortszeit Bedeckungsgrad in Achtel und Wolkenuntergrenze
Fr, 20.07. 22:00 8
Fr, 20.07. 21:50 9 9 9
Fr, 20.07. 21:40 9 9 9
Fr, 20.07. 21:30 3(960m) 5(1500m) 7(1800m)
Fr, 20.07. 21:20 3(960m) 5(1500m) 7(1800m)
Fr, 20.07. 21:10 1(930m) 7(1800m) 8(4200m)
Fr, 20.07. 21:00 3(2100m) 3(2700m) 7(4800m)
Fr, 20.07. 20:30 1(3000m) 7(4800m) 7(5400m)
Fr, 20.07. 20:00 3(5700m) 5(5700m)
Fr, 20.07. 19:30 1(2100m) 4(3900m) 5(5400m)
Fr, 20.07. 19:00 4(4200m)
Ortszeit Luftdruck NN (hPa) Tendenz (hPa in 3 Std.)
Fr, 20.07. 20:00 1011 + 0,3
Fr, 20.07. 14:00 1010 - 0,9
Fr, 20.07. 8:00 1014 - 0,3
Fr, 20.07. 2:00 1016 - 0,3
Do, 19.07. 20:00 1013 - 0,5
Do, 19.07. 14:00 1014 - 0,4
Do, 19.07. 8:00 1017 + 0,2
Do, 19.07. 2:00 1018 + 0,5
Ortszeit Luftdruck NN (hPa) Tendenz (hPa in 3 Std.)
Fr, 20.07. 22:00 1015 + 2,3
Fr, 20.07. 21:50 1015 keine Meldung
Fr, 20.07. 21:40 1015 keine Meldung
Fr, 20.07. 21:30 1014 + 2,2
Fr, 20.07. 21:20 1014 keine Meldung
Fr, 20.07. 21:10 1012 keine Meldung
Fr, 20.07. 21:00 1011 0,0
Fr, 20.07. 20:30 1011 + 0,4
Fr, 20.07. 20:00 1011 + 0,3
Fr, 20.07. 19:30 1010 + 0,2
Fr, 20.07. 19:00 1010 0,0
Ortszeit Schneehöhe (cm)
Fr, 20.07. 20:00 -
Fr, 20.07. 14:00 -
Fr, 20.07. 8:00 -
Fr, 20.07. 2:00 -
Do, 19.07. 20:00 -
Do, 19.07. 14:00 -
Do, 19.07. 8:00 -
Do, 19.07. 2:00 -
Ortszeit Schneehöhe (cm)
Fr, 20.07. 22:00 -
Fr, 20.07. 21:50 -
Fr, 20.07. 21:40 -
Fr, 20.07. 21:30 -
Fr, 20.07. 21:20 -
Fr, 20.07. 21:10 -
Fr, 20.07. 21:00 -
Fr, 20.07. 20:30 -
Fr, 20.07. 20:00 -
Fr, 20.07. 19:30 -
Fr, 20.07. 19:00 -
Link zu dieser Seite / Seite empfehlen

Das Wetter in ...